Time;durP1;ratioP1;P1;durP2;ratioP2;P2;SDS_P1;SDS_P2;PMS_P1;PMS_P2;Temp;Humidity;BMP_temperature;BMP_pressure;BME280_temperature;BME280_humidity;BME280_pressure;Samples;Min_cycle;Max_cycle;Signal;HPM_P1;HPM_P2
2021/10/24 00:00:18;;;;;;;1.83;0.60;;;;;;;12.52;58.45;100869.16;4921903;29;20032;-78
2021/10/24 00:02:45;;;;;;;0.43;0.43;;;;;;;12.51;58.37;100868.34;4916532;29;20497;-78
2021/10/24 00:05:11;;;;;;;0.30;0.30;;;;;;;12.49;58.44;100869.69;4905124;29;20038;-78
2021/10/24 00:07:36;;;;;;;0.38;0.35;;;;;;;12.44;58.47;100867.75;4922679;29;20024;-78
2021/10/24 00:10:02;;;;;;;0.95;0.63;;;;;;;12.47;58.65;100871.88;4927810;29;20032;-79
2021/10/24 00:12:28;;;;;;;0.77;0.60;;;;;;;12.46;58.86;100862.81;4933811;29;20485;-77
2021/10/24 00:14:54;;;;;;;0.47;0.30;;;;;;;12.49;58.68;100858.72;4922184;29;20031;-77
2021/10/24 00:17:19;;;;;;;0.73;0.52;;;;;;;12.55;58.04;100863.94;4906374;29;20482;-78
2021/10/24 00:19:45;;;;;;;0.55;0.40;;;;;;;12.53;58.33;100857.09;4939407;29;20024;-77
2021/10/24 00:22:11;;;;;;;2.15;0.43;;;;;;;12.54;57.93;100856.84;4945903;29;20091;-79
2021/10/24 00:24:37;;;;;;;0.82;0.43;;;;;;;12.53;57.82;100849.69;4930266;29;20052;-77
2021/10/24 00:27:12;;;;;;;;;;;;;;;;;;;;;
2021/10/24 00:29:39;;;;;;;0.65;0.40;;;;;;;12.55;57.88;100841.19;4932613;29;20123;-76
2021/10/24 00:32:14;;;;;;;0.63;0.40;;;;;;;12.70;57.57;100859.59;4939952;29;20058;-76
2021/10/24 00:34:49;;;;;;;0.40;0.32;;;;;;;12.70;57.74;100860.44;4927204;29;20035;-76
2021/10/24 00:37:48;;;;;;;0.77;0.40;;;;;;;12.73;57.73;100859.06;4904319;29;20071;-79
2021/10/24 00:40:56;;;;;;;0.40;0.30;;;;;;;12.74;57.29;100850.56;4908508;29;20046;-78
2021/10/24 00:43:23;;;;;;;0.38;0.38;;;;;;;12.74;57.38;100842.31;4943551;29;20138;-77
2021/10/24 00:46:01;;;;;;;;;;;;;;;;;;;;;
2021/10/24 00:49:18;;;;;;;;;;;;;;;;;;;;;
2021/10/24 00:52:22;;;;;;;1.38;0.80;;;;;;;12.73;58.10;100832.47;4862128;29;20118;-78
2021/10/24 00:55:00;;;;;;;0.43;0.43;;;;;;;12.70;58.69;100821.19;4867165;29;20183;-80
2021/10/24 00:57:28;;;;;;;1.20;0.55;;;;;;;12.71;58.36;100840.13;4917524;29;20036;-79
2021/10/24 00:59:55;;;;;;;0.75;0.50;;;;;;;12.60;59.79;100816.53;4933898;29;20110;-81
2021/10/24 01:02:22;;;;;;;0.70;0.50;;;;;;;12.72;59.38;100836.31;4924565;29;20024;-74
2021/10/24 01:04:52;;;;;;;0.47;0.47;;;;;;;12.72;59.29;100830.00;4907582;29;20032;-73
2021/10/24 01:07:21;;;;;;;0.75;0.60;;;;;;;12.65;59.52;100813.78;4936713;29;20027;-77
2021/10/24 01:10:19;;;;;;;;;;;;;;;;;;;;;
2021/10/24 01:13:03;;;;;;;4.13;0.45;;;;;;;12.80;60.47;100837.69;4952385;29;20062;-78
2021/10/24 01:15:34;;;;;;;1.05;0.70;;;;;;;12.68;60.60;100807.75;4946981;29;20028;-81
2021/10/24 01:18:00;;;;;;;0.93;0.50;;;;;;;12.79;60.31;100816.84;4930174;29;20082;-76
2021/10/24 01:20:28;;;;;;;1.52;0.70;;;;;;;12.64;61.07;100790.16;4939802;29;20095;-76
2021/10/24 01:22:57;;;;;;;1.23;0.70;;;;;;;12.77;60.83;100809.97;4936031;29;20051;-78
2021/10/24 01:25:35;;;;;;;;;;;;;;;;;;;;;
2021/10/24 01:28:01;;;;;;;0.93;0.70;;;;;;;12.67;60.88;100800.59;4937843;29;20081;-76
2021/10/24 01:30:29;;;;;;;2.20;0.77;;;;;;;12.63;61.67;100795.94;4929918;29;20044;-76
2021/10/24 01:32:54;;;;;;;0.93;0.60;;;;;;;12.55;60.95;100789.06;4930742;29;20087;-76
2021/10/24 01:35:22;;;;;;;1.10;0.77;;;;;;;12.46;61.29;100779.72;4905465;29;20035;-75
2021/10/24 01:37:58;;;;;;;;;;;;;;;;;;;;;
2021/10/24 01:41:13;;;;;;;;;;;;;;;;;;;;;
2021/10/24 01:43:39;;;;;;;2.00;0.70;;;;;;;12.57;60.79;100768.50;4901608;29;20467;-78
2021/10/24 01:46:08;;;;;;;2.95;0.63;;;;;;;12.62;60.89;100775.91;4908384;29;20044;-79
2021/10/24 01:48:36;;;;;;;0.55;0.55;;;;;;;12.58;60.29;100756.41;4904776;29;20027;-79
2021/10/24 01:51:12;;;;;;;1.42;0.77;;;;;;;12.56;60.06;100755.06;4902160;29;20033;-78
2021/10/24 01:53:41;;;;;;;0.57;0.52;;;;;;;12.54;60.30;100758.06;4901291;29;20025;-78
2021/10/24 01:56:10;;;;;;;1.30;0.70;;;;;;;12.46;60.36;100742.13;4924790;29;20136;-78
2021/10/24 01:58:48;;;;;;;;;;;;;;;;;;;;;
2021/10/24 02:01:25;;;;;;;0.75;0.75;;;;;;;12.37;59.54;100714.41;4901853;29;20092;-77
2021/10/24 02:03:50;;;;;;;0.40;0.40;;;;;;;12.47;59.55;100735.56;4902595;29;20505;-77
2021/10/24 02:06:16;;;;;;;6.43;0.75;;;;;;;12.37;59.64;100730.88;4924079;29;20032;-79
2021/10/24 02:08:44;;;;;;;0.60;0.40;;;;;;;12.27;60.27;100724.53;4913363;29;20052;-78
2021/10/24 02:11:22;;;;;;;;;;;;;;;;;;;;;
2021/10/24 02:13:48;;;;;;;0.50;0.50;;;;;;;12.23;60.19;100721.50;4922891;29;20115;-78
2021/10/24 02:16:16;;;;;;;1.95;1.05;;;;;;;12.19;60.68;100715.75;4904871;29;20404;-77
2021/10/24 02:18:44;;;;;;;0.80;0.80;;;;;;;12.14;60.78;100712.16;4903771;29;20037;-78
2021/10/24 02:21:12;;;;;;;1.48;0.90;;;;;;;12.22;61.41;100728.06;4905904;29;20048;-79
2021/10/24 02:23:40;;;;;;;5.22;0.85;;;;;;;12.17;60.91;100686.94;4926303;29;20031;-79
2021/10/24 02:26:05;;;;;;;1.27;0.70;;;;;;;12.31;60.43;100710.03;4920594;29;20029;-75
2021/10/24 02:28:31;;;;;;;4.75;0.95;;;;;;;12.31;60.96;100709.19;4932044;29;20016;-76
2021/10/24 02:30:56;;;;;;;1.67;0.93;;;;;;;12.32;61.10;100708.09;4931223;29;20020;-76
2021/10/24 02:33:22;;;;;;;1.48;0.82;;;;;;;12.31;61.21;100704.53;4932235;29;20017;-76
2021/10/24 02:35:47;;;;;;;1.45;0.80;;;;;;;12.30;61.44;100697.41;4910715;29;20566;-75
2021/10/24 02:38:13;;;;;;;0.65;0.65;;;;;;;12.31;61.44;100688.09;4913959;29;20028;-76
2021/10/24 02:40:42;;;;;;;0.55;0.50;;;;;;;12.31;60.84;100688.09;4898034;29;20039;-75
2021/10/24 02:43:08;;;;;;;1.45;0.80;;;;;;;12.29;61.46;100684.78;4903693;29;20411;-77
2021/10/24 02:45:36;;;;;;;0.77;0.60;;;;;;;12.33;60.92;100685.88;4904099;29;20028;-77
2021/10/24 02:48:02;;;;;;;2.33;0.60;;;;;;;12.33;61.29;100680.41;4900847;29;20040;-76
2021/10/24 02:50:27;;;;;;;0.98;0.80;;;;;;;12.29;61.63;100682.03;4897969;29;20024;-75
2021/10/24 02:52:53;;;;;;;0.93;0.70;;;;;;;12.30;61.80;100686.44;4896410;29;20491;-75
2021/10/24 02:55:18;;;;;;;4.22;0.60;;;;;;;12.29;61.53;100681.22;4892011;29;20043;-77
2021/10/24 02:57:44;;;;;;;0.47;0.47;;;;;;;12.29;61.92;100683.97;4915349;29;20150;-78
2021/10/24 03:00:10;;;;;;;1.17;0.73;;;;;;;12.32;62.08;100686.97;4899728;29;20506;-77
2021/10/24 03:02:36;;;;;;;1.83;0.73;;;;;;;12.35;61.21;100683.72;4888553;29;20021;-77
2021/10/24 03:05:03;;;;;;;1.63;0.95;;;;;;;12.37;61.81;100680.69;4896257;29;20029;-76
2021/10/24 03:07:29;;;;;;;2.60;0.50;;;;;;;12.37;61.64;100678.75;4910361;29;20143;-76
2021/10/24 03:09:54;;;;;;;1.30;0.60;;;;;;;12.43;62.30;100676.03;4894010;29;20047;-77
2021/10/24 03:12:20;;;;;;;0.82;0.82;;;;;;;12.44;61.72;100675.78;4897126;29;20036;-77
2021/10/24 03:14:46;;;;;;;2.50;1.00;;;;;;;12.42;62.39;100674.38;4901402;29;20032;-76
2021/10/24 03:17:11;;;;;;;1.73;0.80;;;;;;;12.42;62.86;100663.41;4913686;29;20032;-74
2021/10/24 03:19:37;;;;;;;1.75;0.82;;;;;;;12.38;62.38;100649.41;4909293;29;20036;-76
2021/10/24 03:22:04;;;;;;;5.10;0.95;;;;;;;12.45;62.74;100663.69;4895076;29;20119;-75
2021/10/24 03:24:30;;;;;;;1.05;0.65;;;;;;;12.45;62.30;100655.47;4892138;29;20489;-75
2021/10/24 03:26:56;;;;;;;4.30;0.55;;;;;;;12.49;62.63;100658.50;4892885;29;20036;-76
2021/10/24 03:29:22;;;;;;;1.80;0.95;;;;;;;12.49;62.10;100655.75;4907647;29;20380;-75
2021/10/24 03:31:47;;;;;;;1.27;0.63;;;;;;;12.51;62.54;100650.81;4907734;29;20088;-76
2021/10/24 03:34:13;;;;;;;2.30;0.73;;;;;;;12.51;61.98;100648.06;4905635;29;20067;-75
2021/10/24 03:36:41;;;;;;;2.28;0.73;;;;;;;12.54;62.24;100650.25;4907333;29;20047;-76
2021/10/24 03:39:07;;;;;;;2.38;0.50;;;;;;;12.49;61.44;100642.03;4902107;29;20043;-76
2021/10/24 03:41:35;;;;;;;0.93;0.60;;;;;;;12.47;61.77;100646.94;4910324;29;20080;-77
2021/10/24 03:44:01;;;;;;;0.95;0.70;;;;;;;12.35;62.19;100636.25;4911021;29;20053;-78
2021/10/24 03:46:35;;;;;;;0.82;0.50;;;;;;;12.21;61.90;100622.25;4887753;29;20051;-77
2021/10/24 03:49:01;;;;;;;1.10;0.50;;;;;;;12.21;61.88;100623.06;4908552;29;20025;-77
2021/10/24 03:51:26;;;;;;;2.42;0.85;;;;;;;12.12;61.72;100615.66;4918458;29;20025;-77
2021/10/24 03:54:02;;;;;;;2.13;0.98;;;;;;;12.04;61.83;100612.34;4905013;29;20048;-75
2021/10/24 03:56:59;;;;;;;2.17;0.85;;;;;;;12.02;61.78;100611.00;4908107;29;20037;-78
2021/10/24 03:59:45;;;;;;;0.85;0.85;;;;;;;12.09;62.22;100618.94;4907071;29;20040;-77
2021/10/24 04:02:11;;;;;;;;;;;;;;;12.14;62.08;100625.25;4905487;29;20027;-76
2021/10/24 04:05:07;;;;;;;;;;;;;;;;;;;;;
2021/10/24 04:07:42;;;;;;;0.85;0.52;;;;;;;12.09;62.09;100597.00;4891614;29;20089;-76
2021/10/24 04:10:13;;;;;;;3.27;1.00;;;;;;;12.12;61.52;100602.78;4909096;29;20028;-76
2021/10/24 04:12:41;;;;;;;2.08;0.82;;;;;;;12.19;61.85;100614.31;4893168;29;20037;-77
2021/10/24 04:15:10;;;;;;;3.45;0.95;;;;;;;12.28;61.31;100621.97;4904103;29;20035;-76
2021/10/24 04:17:35;;;;;;;0.65;0.47;;;;;;;12.28;61.12;100609.13;4915896;29;20115;-77
2021/10/24 04:20:01;;;;;;;6.95;0.98;;;;;;;12.33;61.37;100619.25;4906454;29;20032;-75
2021/10/24 04:22:28;;;;;;;0.50;0.50;;;;;;;12.38;61.70;100627.47;4881855;29;20036;-77
2021/10/24 04:24:54;;;;;;;2.78;0.57;;;;;;;12.36;61.16;100614.03;4910122;29;20040;-76
2021/10/24 04:27:22;;;;;;;0.50;0.50;;;;;;;12.45;61.35;100616.25;4900316;29;20116;-76
2021/10/24 04:29:47;;;;;;;1.60;0.47;;;;;;;12.44;60.93;100609.94;4898930;29;20089;-76
2021/10/24 04:32:14;;;;;;;0.40;0.32;;;;;;;12.48;61.09;100610.22;4901108;29;20040;-75
2021/10/24 04:34:39;;;;;;;2.30;0.77;;;;;;;12.39;61.24;100597.03;4898134;29;20499;-75
2021/10/24 04:37:05;;;;;;;7.57;0.70;;;;;;;12.39;61.13;100597.03;4902442;29;20063;-78
2021/10/24 04:39:31;;;;;;;0.60;0.55;;;;;;;12.50;61.72;100613.50;4903462;29;20028;-79
2021/10/24 04:41:56;;;;;;;0.38;0.22;;;;;;;12.51;61.32;100616.00;4894796;29;20532;-78
2021/10/24 04:44:22;;;;;;;4.07;0.90;;;;;;;12.53;61.75;100618.44;4903976;29;20080;-77
2021/10/24 04:46:47;;;;;;;2.50;0.50;;;;;;;12.55;61.12;100613.50;4902518;29;20068;-77
2021/10/24 04:49:12;;;;;;;2.05;0.60;;;;;;;12.56;61.42;100613.22;4909544;29;20021;-76
2021/10/24 04:51:38;;;;;;;1.67;0.80;;;;;;;12.58;61.76;100615.69;4896508;29;20045;-76
2021/10/24 04:54:05;;;;;;;0.90;0.60;;;;;;;12.56;61.58;100613.22;4892308;29;20080;-76
2021/10/24 04:56:31;;;;;;;2.58;0.50;;;;;;;12.61;61.43;100615.13;4905112;29;20032;-78
2021/10/24 04:58:56;;;;;;;1.02;0.68;;;;;;;12.60;61.55;100613.50;4902786;29;20057;-76
2021/10/24 05:01:42;;;;;;;4.18;0.55;;;;;;;12.54;62.08;100600.88;4902963;29;20152;-79
2021/10/24 05:04:08;;;;;;;2.00;0.75;;;;;;;12.63;62.56;100614.88;4908638;29;20096;-80
2021/10/24 05:06:33;;;;;;;4.57;1.00;;;;;;;12.62;62.06;100614.06;4897279;29;20033;-80
2021/10/24 05:09:26;;;;;;;1.27;0.57;;;;;;;12.58;62.64;100601.97;4885418;29;20040;-78
2021/10/24 05:11:51;;;;;;;1.27;0.60;;;;;;;12.57;62.59;100592.94;4901371;29;20089;-80
2021/10/24 05:14:27;;;;;;;;;;;;;;;;;;;;;
2021/10/24 05:16:53;;;;;;;1.80;0.47;;;;;;;12.54;62.68;100588.00;4889299;29;20100;-79
2021/10/24 05:19:18;;;;;;;0.98;0.65;;;;;;;12.63;62.75;100596.50;4898111;29;20071;-80
2021/10/24 05:21:44;;;;;;;1.17;0.40;;;;;;;12.66;62.72;100592.34;4898915;29;20020;-76
2021/10/24 05:24:10;;;;;;;1.65;0.30;;;;;;;12.64;62.61;100595.38;4895502;29;20042;-77
2021/10/24 05:26:39;;;;;;;1.20;1.05;;;;;;;12.64;63.44;100598.13;4896716;29;20028;-80
2021/10/24 05:29:04;;;;;;;1.17;0.60;;;;;;;12.66;63.57;100595.94;4900637;29;20025;-78
2021/10/24 05:31:30;;;;;;;0.90;0.70;;;;;;;12.52;63.25;100567.41;4895951;29;20029;-78
2021/10/24 05:33:57;;;;;;;1.10;0.75;;;;;;;12.63;62.95;100579.19;4910659;29;20427;-87
2021/10/24 05:36:27;;;;;;;0.63;0.60;;;;;;;12.65;63.63;100588.81;4887398;29;20498;-79
2021/10/24 05:38:53;;;;;;;0.88;0.85;;;;;;;12.63;63.93;100574.56;4899393;29;20025;-80
2021/10/24 05:41:18;;;;;;;0.90;0.60;;;;;;;12.59;63.73;100565.22;4896527;29;20092;-79
2021/10/24 05:43:46;;;;;;;0.70;0.60;;;;;;;12.58;64.16;100571.81;4886163;29;20523;-80
2021/10/24 05:46:12;;;;;;;1.67;0.80;;;;;;;12.55;64.21;100570.44;4899908;29;20587;-78
2021/10/24 05:48:40;;;;;;;2.05;1.10;;;;;;;12.52;64.87;100567.41;4896361;29;20047;-79
2021/10/24 05:51:09;;;;;;;2.63;0.80;;;;;;;12.59;64.47;100573.44;4901863;29;20032;-79
2021/10/24 05:53:35;;;;;;;5.85;1.25;;;;;;;12.58;65.27;100577.28;4903080;29;20021;-79
2021/10/24 05:56:01;;;;;;;2.60;0.70;;;;;;;12.59;65.47;100578.94;4929150;29;20043;-80
2021/10/24 05:58:54;;;;;;;;;;;;;;;;;;;;;
2021/10/24 06:01:50;;;;;;;3.15;0.88;;;;;;;12.55;64.74;100550.41;4909991;29;20048;-80
2021/10/24 06:04:18;;;;;;;1.23;0.82;;;;;;;12.67;64.65;100563.84;4904754;29;20112;-78
2021/10/24 06:06:44;;;;;;;1.50;0.80;;;;;;;12.60;65.07;100558.66;4903269;29;20029;-78
2021/10/24 06:09:12;;;;;;;1.05;0.57;;;;;;;12.65;64.92;100564.13;4867611;29;20036;-78
2021/10/24 06:12:13;;;;;;;3.05;0.95;;;;;;;12.59;65.61;100557.00;4898319;29;20501;-80
2021/10/24 06:14:41;;;;;;;4.80;1.05;;;;;;;12.58;65.37;100542.44;4901796;29;20049;-80
2021/10/24 06:17:09;;;;;;;4.97;1.10;;;;;;;12.66;65.08;100554.78;4888869;29;20032;-77
2021/10/24 06:19:44;;;;;;;1.40;1.00;;;;;;;12.61;65.60;100552.03;4895856;29;20059;-77
2021/10/24 06:22:10;;;;;;;1.65;0.80;;;;;;;12.65;65.86;100555.88;4902270;29;20080;-78
2021/10/24 06:24:38;;;;;;;0.80;0.70;;;;;;;12.57;65.71;100537.22;4895489;29;20425;-79
2021/10/24 06:27:08;;;;;;;3.85;1.08;;;;;;;12.53;65.43;100533.41;4914506;29;20183;-79
2021/10/24 06:29:34;;;;;;;2.17;0.77;;;;;;;12.53;65.89;100533.41;4909019;29;20021;-77
2021/10/24 06:32:00;;;;;;;1.90;1.25;;;;;;;12.62;66.31;100550.94;4910807;29;20032;-77
2021/10/24 06:34:31;;;;;;;4.18;1.13;;;;;;;12.63;66.09;100558.09;4910077;29;20490;-77
2021/10/24 06:37:01;;;;;;;1.35;1.00;;;;;;;12.55;65.79;100537.50;4902051;29;20017;-78
2021/10/24 06:39:36;;;;;;;4.97;1.40;;;;;;;12.65;65.97;100550.41;4899503;29;20058;-78
2021/10/24 06:42:01;;;;;;;2.80;0.85;;;;;;;12.65;65.85;100550.41;4909263;29;20032;-79
2021/10/24 06:44:30;;;;;;;1.30;1.20;;;;;;;12.66;65.95;100553.94;4901910;29;20084;-79
2021/10/24 06:47:00;;;;;;;3.42;1.48;;;;;;;12.50;66.32;100525.72;4890196;29;20032;-80
2021/10/24 06:49:57;;;;;;;;;;;;;;;;;;;;;
2021/10/24 06:52:39;;;;;;;0.98;0.95;;;;;;;12.67;66.82;100553.66;4892452;29;20101;-81
2021/10/24 06:55:16;;;;;;;1.52;0.57;;;;;;;12.66;66.43;100565.75;4890257;29;20039;-83
2021/10/24 06:57:52;;;;;;;5.00;0.73;;;;;;;12.62;66.47;100545.47;4879631;29;20029;-82
2021/10/24 07:00:19;;;;;;;1.10;0.70;;;;;;;12.62;66.24;100545.47;4906149;29;20069;-80
2021/10/24 07:03:04;;;;;;;2.00;0.70;;;;;;;12.70;65.85;100558.63;4901134;29;20020;-79
2021/10/24 07:05:31;;;;;;;6.20;1.15;;;;;;;12.60;66.84;100546.84;4894368;29;20482;-79
2021/10/24 07:07:56;;;;;;;1.08;0.80;;;;;;;12.60;66.36;100541.34;4887341;29;20482;-79
2021/10/24 07:10:25;;;;;;;2.05;0.93;;;;;;;12.70;66.35;100557.78;4892013;29;20032;-78
2021/10/24 07:13:10;;;;;;;;;;;;;;;;;;;;;
2021/10/24 07:15:41;;;;;;;1.35;0.60;;;;;;;12.67;66.45;100541.88;4892948;29;20039;-78
2021/10/24 07:18:14;;;;;;;2.53;0.77;;;;;;;12.68;66.18;100544.34;4898826;29;20029;-79
2021/10/24 07:20:39;;;;;;;1.85;0.88;;;;;;;12.74;66.12;100559.69;4897651;29;20479;-79
2021/10/24 07:23:05;;;;;;;2.97;0.65;;;;;;;12.68;66.24;100563.56;4890926;29;20036;-78
2021/10/24 07:25:31;;;;;;;7.88;0.95;;;;;;;12.65;66.34;100555.88;4892390;29;20032;-79
2021/10/24 07:27:56;;;;;;;1.67;1.27;;;;;;;12.63;67.13;100555.34;4891831;29;20055;-78
2021/10/24 07:30:25;;;;;;;1.52;0.63;;;;;;;12.56;66.88;100541.91;4895618;29;20080;-78
2021/10/24 07:32:52;;;;;;;0.80;0.75;;;;;;;12.59;66.76;100540.53;4896865;29;20032;-77
2021/10/24 07:35:27;;;;;;;3.50;1.10;;;;;;;12.65;67.15;100555.06;4897789;29;20021;-79
2021/10/24 07:37:52;;;;;;;4.97;1.00;;;;;;;12.66;66.71;100554.78;4898425;29;20061;-77
2021/10/24 07:40:18;;;;;;;2.40;0.68;;;;;;;12.65;66.74;100547.66;4895396;29;20091;-79
2021/10/24 07:42:47;;;;;;;3.83;0.85;;;;;;;12.70;66.44;100564.13;4912342;29;20017;-79
2021/10/24 07:45:15;;;;;;;3.05;0.65;;;;;;;12.70;66.90;100547.66;4931109;29;20090;-77
2021/10/24 07:47:45;;;;;;;1.65;1.38;;;;;;;12.67;66.53;100539.13;4918419;29;20028;-78
2021/10/24 07:50:11;;;;;;;1.80;0.50;;;;;;;12.87;66.53;100565.72;4947169;29;20019;-79
2021/10/24 07:52:40;;;;;;;3.92;0.98;;;;;;;12.90;66.83;100557.75;4945262;29;20054;-78
2021/10/24 07:55:15;;;;;;;1.15;0.70;;;;;;;12.96;66.11;100561.31;4935523;29;20032;-82
2021/10/24 07:57:42;;;;;;;4.88;0.82;;;;;;;12.97;66.51;100541.00;4935445;29;20020;-79
2021/10/24 08:00:13;;;;;;;1.00;0.80;;;;;;;13.06;66.03;100544.78;4947605;29;20155;-79
2021/10/24 08:02:44;;;;;;;4.28;0.82;;;;;;;13.30;65.82;100560.63;4934824;29;20055;-79
2021/10/24 08:05:10;;;;;;;1.38;0.70;;;;;;;13.42;66.15;100560.38;4935850;29;20111;-78
2021/10/24 08:07:43;;;;;;;2.40;1.02;;;;;;;13.45;65.51;100546.06;4932793;29;20492;-79
2021/10/24 08:10:16;;;;;;;4.40;1.00;;;;;;;13.49;65.58;100552.63;4907160;29;20047;-79
2021/10/24 08:12:42;;;;;;;5.00;1.60;;;;;;;13.44;65.20;100545.22;4913739;29;20034;-79
2021/10/24 08:15:09;;;;;;;5.70;1.10;;;;;;;13.49;65.39;100557.28;4922091;29;20031;-80
2021/10/24 08:17:36;;;;;;;4.35;1.20;;;;;;;13.46;65.38;100568.84;4934388;29;20032;-80
2021/10/24 08:20:04;;;;;;;2.90;1.17;;;;;;;13.36;65.43;100543.09;4943550;29;20020;-77
2021/10/24 08:22:32;;;;;;;3.42;0.70;;;;;;;13.48;65.20;100544.66;4920042;29;20147;-78
2021/10/24 08:25:01;;;;;;;3.75;0.77;;;;;;;13.70;65.01;100558.84;4908107;29;20036;-80
2021/10/24 08:27:29;;;;;;;4.63;1.00;;;;;;;13.86;65.01;100550.50;4941475;29;20038;-78
2021/10/24 08:29:55;;;;;;;4.78;1.08;;;;;;;13.78;64.48;100547.25;4941407;29;20027;-79
2021/10/24 08:32:21;;;;;;;2.92;0.63;;;;;;;13.87;63.94;100568.63;4928407;29;20054;-79
2021/10/24 08:34:46;;;;;;;1.63;0.90;;;;;;;13.83;64.45;100575.78;4925854;29;20039;-80
2021/10/24 08:37:12;;;;;;;7.10;1.02;;;;;;;13.81;64.09;100551.34;4930520;29;20035;-82
2021/10/24 08:39:41;;;;;;;3.35;1.13;;;;;;;13.78;63.87;100560.16;4938943;29;20038;-77
2021/10/24 08:42:07;;;;;;;2.08;1.20;;;;;;;13.64;64.19;100551.72;4913732;29;20020;-78
2021/10/24 08:44:34;;;;;;;4.25;0.90;;;;;;;13.67;64.65;100558.56;4921535;29;20048;-78
2021/10/24 08:47:05;;;;;;;1.63;0.50;;;;;;;13.68;64.61;100561.06;4936992;29;20038;-81
2021/10/24 08:49:33;;;;;;;2.67;1.00;;;;;;;13.65;64.68;100556.09;4907041;29;20028;-78
2021/10/24 08:52:05;;;;;;;1.65;0.80;;;;;;;13.67;64.87;100564.06;4915938;29;20430;-79
2021/10/24 08:54:34;;;;;;;4.80;1.17;;;;;;;13.55;64.65;100543.25;4932748;29;20023;-78
2021/10/24 08:57:03;;;;;;;2.10;0.90;;;;;;;13.64;64.57;100548.13;4932773;29;20031;-75
2021/10/24 08:59:31;;;;;;;3.88;0.98;;;;;;;13.66;64.51;100546.75;4931829;29;20058;-75
2021/10/24 09:01:57;;;;;;;2.97;0.70;;;;;;;13.62;64.33;100531.94;4921946;29;20086;-77
2021/10/24 09:04:23;;;;;;;0.80;0.50;;;;;;;13.67;64.81;100525.59;4922261;29;20030;-78
2021/10/24 09:07:03;;;;;;;1.20;0.90;;;;;;;13.86;64.31;100539.50;4914235;29;20128;-77
2021/10/24 09:09:30;;;;;;;0.80;0.70;;;;;;;13.95;64.30;100535.03;4916514;29;20024;-77
2021/10/24 09:12:08;;;;;;;2.80;1.42;;;;;;;14.02;64.33;100524.53;4933978;29;20031;-77
2021/10/24 09:14:46;;;;;;;1.33;0.40;;;;;;;14.27;64.09;100531.75;4927457;29;20031;-77
2021/10/24 09:17:32;;;;;;;3.50;0.98;;;;;;;14.55;63.07;100534.00;4933271;29;20024;-78
2021/10/24 09:20:00;;;;;;;;;;;;;;;14.73;63.03;100535.22;4925819;29;20063;-78
2021/10/24 09:22:30;;;;;;;1.55;0.90;;;;;;;14.72;62.33;100523.38;4951039;29;19907;-77
2021/10/24 09:25:19;;;;;;;1.88;0.82;;;;;;;14.90;62.20;100521.00;4949006;29;20264;-78
2021/10/24 09:28:00;;;;;;;2.45;0.77;;;;;;;15.11;61.74;100516.91;4927925;29;20223;-79
2021/10/24 09:30:59;;;;;;;0.93;0.60;;;;;;;15.91;60.92;100530.16;4934277;29;20039;-76
2021/10/24 09:33:27;;;;;;;2.88;0.98;;;;;;;16.15;59.01;100525.38;4915998;29;20039;-76
2021/10/24 09:35:55;;;;;;;1.02;0.60;;;;;;;16.34;58.89;100530.00;4922986;29;20028;-76
2021/10/24 09:38:23;;;;;;;2.42;1.10;;;;;;;16.27;58.05;100526.84;4934806;29;20390;-77
2021/10/24 09:40:58;;;;;;;0.52;0.50;;;;;;;15.96;58.27;100522.63;4920143;29;20052;-77
2021/10/24 09:43:28;;;;;;;3.45;0.73;;;;;;;15.82;58.78;100541.03;4918588;29;20104;-76
2021/10/24 09:45:59;;;;;;;2.03;0.43;;;;;;;15.67;59.08;100539.31;4931473;29;20039;-77
2021/10/24 09:48:32;;;;;;;1.45;0.52;;;;;;;15.49;59.99;100530.72;4932983;29;20016;-77
2021/10/24 09:51:11;;;;;;;1.13;0.90;;;;;;;15.36;60.27;100537.78;4931394;29;20123;-78
2021/10/24 09:53:39;;;;;;;2.92;1.35;;;;;;;15.28;60.66;100543.13;4935668;29;20951;-76
2021/10/24 09:56:15;;;;;;;3.30;0.73;;;;;;;15.21;60.97;100534.41;4929797;29;20031;-75
2021/10/24 09:58:46;;;;;;;1.90;0.95;;;;;;;15.21;61.36;100526.13;4918856;29;20032;-77
2021/10/24 10:01:32;;;;;;;1.20;0.73;;;;;;;15.26;61.29;100528.81;4929194;29;20039;-77
2021/10/24 10:03:57;;;;;;;3.92;1.00;;;;;;;15.21;61.25;100524.19;4933670;29;20036;-78
2021/10/24 10:06:26;;;;;;;1.00;0.95;;;;;;;15.27;61.69;100522.19;4906394;29;20043;-78
2021/10/24 10:08:51;;;;;;;1.10;0.57;;;;;;;15.44;61.43;100522.50;4919629;29;20034;-77
2021/10/24 10:11:41;;;;;;;;;;;;;;;;;;;;;
2021/10/24 10:14:13;;;;;;;1.27;0.60;;;;;;;16.72;60.08;100518.84;4932714;29;20452;-75
2021/10/24 10:16:41;;;;;;;3.33;0.70;;;;;;;17.23;59.76;100517.84;4935560;29;20056;-76
2021/10/24 10:19:14;;;;;;;4.20;1.13;;;;;;;17.49;57.47;100506.22;4924923;29;20438;-75
2021/10/24 10:21:41;;;;;;;2.13;0.95;;;;;;;17.45;57.11;100505.25;4911892;29;20039;-75
2021/10/24 10:24:10;;;;;;;5.00;0.88;;;;;;;17.26;56.81;100522.75;4927822;29;20046;-75
2021/10/24 10:26:54;;;;;;;4.70;0.90;;;;;;;16.92;57.76;100504.69;4931878;29;20019;-75
2021/10/24 10:29:57;;;;;;;2.47;0.90;;;;;;;16.78;58.14;100509.34;4918658;29;20032;-77
2021/10/24 10:32:44;;;;;;;4.13;1.08;;;;;;;16.54;58.46;100491.03;4936287;29;20047;-75
2021/10/24 10:35:13;;;;;;;2.25;1.00;;;;;;;16.47;58.51;100503.56;4927227;29;20023;-78
2021/10/24 10:37:52;;;;;;;1.20;0.68;;;;;;;16.43;58.90;100508.88;4925352;29;20062;-77
2021/10/24 10:40:33;;;;;;;3.03;1.10;;;;;;;16.44;59.73;100491.22;4914941;29;20055;-78
2021/10/24 10:43:12;;;;;;;4.57;0.93;;;;;;;16.47;59.39;100492.53;4920519;29;20135;-77
2021/10/24 10:45:44;;;;;;;6.20;1.30;;;;;;;16.37;59.70;100488.84;4929812;29;20059;-77
2021/10/24 10:48:43;;;;;;;4.30;1.05;;;;;;;16.24;59.57;100475.84;4913397;29;20129;-80
2021/10/24 10:51:26;;;;;;;2.80;0.88;;;;;;;16.24;59.75;100473.06;4931624;29;20444;-79
2021/10/24 10:53:56;;;;;;;5.82;0.82;;;;;;;16.23;60.18;100483.28;4916508;29;20095;-74
2021/10/24 10:56:31;;;;;;;8.50;0.80;;;;;;;16.15;60.51;100481.22;4927555;29;20035;-77
2021/10/24 10:59:02;;;;;;;5.00;1.00;;;;;;;16.07;60.48;100490.19;4919956;29;20556;-77
2021/10/24 11:01:39;;;;;;;0.90;0.60;;;;;;;16.04;60.79;100474.22;4933085;29;20394;-76
2021/10/24 11:04:18;;;;;;;;;;;;;;;16.27;60.79;100471.66;5048132;28;20376;-79
2021/10/24 11:06:54;;;;;;;4.03;1.13;;;;;;;16.35;60.82;100479.22;5057356;28;20378;-77
2021/10/24 11:09:42;;;;;;;2.03;1.17;;;;;;;16.57;60.88;100476.59;5036963;28;20135;-78
2021/10/24 11:12:10;;;;;;;3.65;1.17;;;;;;;16.73;60.55;100468.00;5041729;28;20112;-75
2021/10/24 11:14:35;;;;;;;1.08;0.70;;;;;;;16.92;59.85;100463.25;5057325;28;21004;-79
2021/10/24 11:17:06;;;;;;;1.15;0.88;;;;;;;17.10;59.89;100441.34;5047167;28;20029;-78
2021/10/24 11:19:39;;;;;;;1.15;0.77;;;;;;;17.35;60.01;100455.72;5026633;28;20029;-78
2021/10/24 11:22:05;;;;;;;1.08;0.80;;;;;;;17.56;58.98;100461.56;5037044;28;20052;-76
2021/10/24 11:24:33;;;;;;;3.13;1.13;;;;;;;17.70;58.61;100462.34;5043684;28;20387;-76
2021/10/24 11:27:03;;;;;;;4.57;1.33;;;;;;;17.75;57.80;100458.63;5054255;28;20052;-75
2021/10/24 11:29:33;;;;;;;4.15;1.33;;;;;;;17.60;57.17;100454.28;5046234;28;20022;-79
2021/10/24 11:32:25;;;;;;;2.83;1.00;;;;;;;17.46;57.63;100457.09;5028767;28;20112;-80
2021/10/24 11:35:17;;;;;;;1.25;0.82;;;;;;;17.28;57.71;100459.69;5035942;28;20056;-77
2021/10/24 11:38:05;;;;;;;3.55;1.02;;;;;;;17.07;57.72;100444.72;5035855;28;20038;-76
2021/10/24 11:40:41;;;;;;;4.10;0.85;;;;;;;16.87;58.37;100440.41;5039300;28;20017;-78
2021/10/24 11:43:13;;;;;;;2.28;0.65;;;;;;;16.75;58.78;100443.69;5036750;28;20451;-78
2021/10/24 11:46:02;;;;;;;2.70;1.10;;;;;;;16.67;59.34;100436.91;5054174;28;20017;-77
2021/10/24 11:48:32;;;;;;;4.10;1.10;;;;;;;16.66;59.30;100434.47;5066982;28;20089;-81
2021/10/24 11:51:04;;;;;;;3.28;1.00;;;;;;;16.67;59.47;100439.69;5053558;28;20053;-79
2021/10/24 11:53:42;;;;;;;2.63;1.13;;;;;;;16.77;59.68;100435.91;5041176;28;20025;-82
2021/10/24 11:56:12;;;;;;;5.30;0.98;;;;;;;16.79;59.35;100438.34;5051330;28;20029;-77
2021/10/24 12:01:13;;;;;;;1.20;1.10;;;;;;;16.80;59.90;100427.00;5043031;28;20029;-79
2021/10/24 12:04:02;;;;;;;2.35;1.00;;;;;;;16.77;59.48;100422.09;5049137;28;20476;-77
2021/10/24 12:06:58;;;;;;;2.00;0.90;;;;;;;16.78;60.21;100437.53;5041277;28;20036;-76